sensor_id;sensor_type;location;lat;lon;timestamp;temperature;humidity
33207;DHT22;19565;46.602;11.534;2023-09-18T00:01:59;20.50;99.90
33207;DHT22;19565;46.602;11.534;2023-09-18T00:04:27;20.50;99.90
33207;DHT22;19565;46.602;11.534;2023-09-18T00:06:55;20.40;99.90
33207;DHT22;19565;46.602;11.534;2023-09-18T00:09:23;20.50;99.90
33207;DHT22;19565;46.602;11.534;2023-09-18T00:11:51;20.40;99.90
33207;DHT22;19565;46.602;11.534;2023-09-18T00:14:20;20.50;99.90
33207;DHT22;19565;46.602;11.534;2023-09-18T00:16:48;20.40;99.90
33207;DHT22;19565;46.602;11.534;2023-09-18T00:19:26;20.50;99.90
33207;DHT22;19565;46.602;11.534;2023-09-18T00:21:54;20.40;99.90
33207;DHT22;19565;46.602;11.534;2023-09-18T00:24:23;20.40;99.90
33207;DHT22;19565;46.602;11.534;2023-09-18T00:26:52;20.40;99.90
33207;DHT22;19565;46.602;11.534;2023-09-18T00:29:21;20.40;99.90
33207;DHT22;19565;46.602;11.534;2023-09-18T00:31:49;20.40;99.90
33207;DHT22;19565;46.602;11.534;2023-09-18T00:34:17;20.40;99.90
33207;DHT22;19565;46.602;11.534;2023-09-18T00:36:46;20.50;99.90
33207;DHT22;19565;46.602;11.534;2023-09-18T00:39:14;20.50;99.90
33207;DHT22;19565;46.602;11.534;2023-09-18T00:41:42;20.40;99.90
33207;DHT22;19565;46.602;11.534;2023-09-18T00:44:16;20.30;99.90
33207;DHT22;19565;46.602;11.534;2023-09-18T00:46:44;20.30;99.90
33207;DHT22;19565;46.602;11.534;2023-09-18T00:49:12;20.20;99.90
33207;DHT22;19565;46.602;11.534;2023-09-18T00:51:40;20.20;99.90
33207;DHT22;19565;46.602;11.534;2023-09-18T00:54:11;20.30;99.90
33207;DHT22;19565;46.602;11.534;2023-09-18T00:56:39;20.30;99.90
33207;DHT22;19565;46.602;11.534;2023-09-18T00:59:07;20.30;99.90
33207;DHT22;19565;46.602;11.534;2023-09-18T01:01:36;20.30;99.90
33207;DHT22;19565;46.602;11.534;2023-09-18T01:04:04;20.30;99.90
33207;DHT22;19565;46.602;11.534;2023-09-18T01:06:33;20.30;99.90
33207;DHT22;19565;46.602;11.534;2023-09-18T01:09:02;20.30;99.90
33207;DHT22;19565;46.602;11.534;2023-09-18T01:11:39;20.30;99.90
33207;DHT22;19565;46.602;11.534;2023-09-18T01:14:12;20.30;99.90
33207;DHT22;19565;46.602;11.534;2023-09-18T01:16:52;20.30;99.90
33207;DHT22;19565;46.602;11.534;2023-09-18T01:19:35;20.20;99.90
33207;DHT22;19565;46.602;11.534;2023-09-18T01:22:05;20.20;99.90
33207;DHT22;19565;46.602;11.534;2023-09-18T01:24:35;20.20;99.90
33207;DHT22;19565;46.602;11.534;2023-09-18T01:27:06;20.20;99.90
33207;DHT22;19565;46.602;11.534;2023-09-18T01:29:34;20.20;99.90
33207;DHT22;19565;46.602;11.534;2023-09-18T01:32:03;20.20;99.90
33207;DHT22;19565;46.602;11.534;2023-09-18T01:34:33;20.20;99.90
33207;DHT22;19565;46.602;11.534;2023-09-18T01:37:03;20.20;99.90
33207;DHT22;19565;46.602;11.534;2023-09-18T01:39:35;20.20;99.90
33207;DHT22;19565;46.602;11.534;2023-09-18T01:42:05;20.20;99.90
33207;DHT22;19565;46.602;11.534;2023-09-18T01:44:33;20.10;99.90
33207;DHT22;19565;46.602;11.534;2023-09-18T01:47:03;20.10;99.90
33207;DHT22;19565;46.602;11.534;2023-09-18T01:49:34;20.00;99.90
33207;DHT22;19565;46.602;11.534;2023-09-18T01:52:04;20.00;99.90
33207;DHT22;19565;46.602;11.534;2023-09-18T01:54:33;20.00;99.90
33207;DHT22;19565;46.602;11.534;2023-09-18T01:57:03;20.00;99.90
33207;DHT22;19565;46.602;11.534;2023-09-18T01:59:31;20.00;99.90
33207;DHT22;19565;46.602;11.534;2023-09-18T02:02:00;19.90;99.90
33207;DHT22;19565;46.602;11.534;2023-09-18T02:04:31;19.90;99.90
33207;DHT22;19565;46.602;11.534;2023-09-18T02:07:19;19.90;99.90
33207;DHT22;19565;46.602;11.534;2023-09-18T02:09:47;19.90;99.90
33207;DHT22;19565;46.602;11.534;2023-09-18T02:12:17;19.90;99.90
33207;DHT22;19565;46.602;11.534;2023-09-18T02:14:45;19.90;99.90
33207;DHT22;19565;46.602;11.534;2023-09-18T02:17:13;19.90;99.90
33207;DHT22;19565;46.602;11.534;2023-09-18T02:19:41;19.90;99.90
33207;DHT22;19565;46.602;11.534;2023-09-18T02:22:10;19.90;99.90
33207;DHT22;19565;46.602;11.534;2023-09-18T02:24:38;19.90;99.90
33207;DHT22;19565;46.602;11.534;2023-09-18T02:27:06;19.90;99.90
33207;DHT22;19565;46.602;11.534;2023-09-18T02:29:36;19.90;99.90
33207;DHT22;19565;46.602;11.534;2023-09-18T02:32:04;19.90;99.90
33207;DHT22;19565;46.602;11.534;2023-09-18T02:34:32;19.90;99.90
33207;DHT22;19565;46.602;11.534;2023-09-18T02:37:00;19.90;99.90
33207;DHT22;19565;46.602;11.534;2023-09-18T02:39:28;19.90;99.90
33207;DHT22;19565;46.602;11.534;2023-09-18T02:41:57;19.90;99.90
33207;DHT22;19565;46.602;11.534;2023-09-18T02:44:25;19.90;99.90
33207;DHT22;19565;46.602;11.534;2023-09-18T02:46:54;19.90;99.90
33207;DHT22;19565;46.602;11.534;2023-09-18T02:49:22;19.80;99.90
33207;DHT22;19565;46.602;11.534;2023-09-18T02:51:50;19.70;99.90
33207;DHT22;19565;46.602;11.534;2023-09-18T02:54:18;19.70;99.90
33207;DHT22;19565;46.602;11.534;2023-09-18T02:56:46;19.50;99.90
33207;DHT22;19565;46.602;11.534;2023-09-18T02:59:15;19.30;99.90
33207;DHT22;19565;46.602;11.534;2023-09-18T03:01:43;19.30;99.90
33207;DHT22;19565;46.602;11.534;2023-09-18T03:04:13;19.20;99.90
33207;DHT22;19565;46.602;11.534;2023-09-18T03:06:41;19.20;99.90
33207;DHT22;19565;46.602;11.534;2023-09-18T03:09:09;19.20;99.90
33207;DHT22;19565;46.602;11.534;2023-09-18T03:11:37;19.10;99.90
33207;DHT22;19565;46.602;11.534;2023-09-18T03:14:05;19.10;99.90
33207;DHT22;19565;46.602;11.534;2023-09-18T03:16:33;19.20;99.90
33207;DHT22;19565;46.602;11.534;2023-09-18T03:19:01;19.30;99.90
33207;DHT22;19565;46.602;11.534;2023-09-18T03:21:31;19.30;99.90
33207;DHT22;19565;46.602;11.534;2023-09-18T03:24:02;19.40;99.90
33207;DHT22;19565;46.602;11.534;2023-09-18T03:26:30;19.50;99.90
33207;DHT22;19565;46.602;11.534;2023-09-18T03:28:59;19.50;99.90
33207;DHT22;19565;46.602;11.534;2023-09-18T03:31:27;19.50;99.90
33207;DHT22;19565;46.602;11.534;2023-09-18T03:33:56;19.60;99.90
33207;DHT22;19565;46.602;11.534;2023-09-18T03:36:24;19.60;99.90
33207;DHT22;19565;46.602;11.534;2023-09-18T03:38:53;19.60;99.90
33207;DHT22;19565;46.602;11.534;2023-09-18T03:41:21;19.60;99.90
33207;DHT22;19565;46.602;11.534;2023-09-18T03:43:50;19.60;99.90
33207;DHT22;19565;46.602;11.534;2023-09-18T03:46:18;19.60;99.90
33207;DHT22;19565;46.602;11.534;2023-09-18T03:48:46;19.60;99.90
33207;DHT22;19565;46.602;11.534;2023-09-18T03:51:14;19.60;99.90
33207;DHT22;19565;46.602;11.534;2023-09-18T03:53:43;19.50;99.90
33207;DHT22;19565;46.602;11.534;2023-09-18T03:56:12;19.50;99.90
33207;DHT22;19565;46.602;11.534;2023-09-18T03:58:40;19.50;99.90
33207;DHT22;19565;46.602;11.534;2023-09-18T04:01:08;19.50;99.90
33207;DHT22;19565;46.602;11.534;2023-09-18T04:03:37;19.50;99.90
33207;DHT22;19565;46.602;11.534;2023-09-18T04:06:05;19.50;99.90
33207;DHT22;19565;46.602;11.534;2023-09-18T04:08:33;19.40;99.90
33207;DHT22;19565;46.602;11.534;2023-09-18T04:11:01;19.40;99.90
33207;DHT22;19565;46.602;11.534;2023-09-18T04:13:32;19.40;99.90
33207;DHT22;19565;46.602;11.534;2023-09-18T04:16:01;19.40;99.90
33207;DHT22;19565;46.602;11.534;2023-09-18T04:18:31;19.40;99.90
33207;DHT22;19565;46.602;11.534;2023-09-18T04:20:59;19.40;99.90
33207;DHT22;19565;46.602;11.534;2023-09-18T04:23:28;19.40;99.90
33207;DHT22;19565;46.602;11.534;2023-09-18T04:25:56;19.30;99.90
33207;DHT22;19565;46.602;11.534;2023-09-18T04:28:25;19.30;99.90
33207;DHT22;19565;46.602;11.534;2023-09-18T04:30:54;19.20;99.90
33207;DHT22;19565;46.602;11.534;2023-09-18T04:33:23;19.30;99.90
33207;DHT22;19565;46.602;11.534;2023-09-18T04:35:52;19.30;99.90
33207;DHT22;19565;46.602;11.534;2023-09-18T04:38:20;19.30;99.90
33207;DHT22;19565;46.602;11.534;2023-09-18T04:40:48;19.30;99.90
33207;DHT22;19565;46.602;11.534;2023-09-18T04:43:16;19.30;99.90
33207;DHT22;19565;46.602;11.534;2023-09-18T04:45:45;19.30;99.90
33207;DHT22;19565;46.602;11.534;2023-09-18T04:48:14;19.30;99.90
33207;DHT22;19565;46.602;11.534;2023-09-18T04:50:42;19.30;99.90
33207;DHT22;19565;46.602;11.534;2023-09-18T04:53:10;19.20;99.90
33207;DHT22;19565;46.602;11.534;2023-09-18T04:55:39;19.30;99.90
33207;DHT22;19565;46.602;11.534;2023-09-18T04:58:07;19.30;99.90
33207;DHT22;19565;46.602;11.534;2023-09-18T05:00:35;19.30;99.90
33207;DHT22;19565;46.602;11.534;2023-09-18T05:03:03;19.40;99.90
33207;DHT22;19565;46.602;11.534;2023-09-18T05:05:34;19.40;99.90
33207;DHT22;19565;46.602;11.534;2023-09-18T05:08:05;19.40;99.90
33207;DHT22;19565;46.602;11.534;2023-09-18T05:10:34;19.40;99.90
33207;DHT22;19565;46.602;11.534;2023-09-18T05:13:03;19.40;99.90
33207;DHT22;19565;46.602;11.534;2023-09-18T05:15:31;19.30;99.90
33207;DHT22;19565;46.602;11.534;2023-09-18T05:18:00;19.30;99.90
33207;DHT22;19565;46.602;11.534;2023-09-18T05:20:31;19.30;99.90
33207;DHT22;19565;46.602;11.534;2023-09-18T05:23:01;19.30;99.90
33207;DHT22;19565;46.602;11.534;2023-09-18T05:25:30;19.30;99.90
33207;DHT22;19565;46.602;11.534;2023-09-18T05:28:00;19.40;99.90
33207;DHT22;19565;46.602;11.534;2023-09-18T05:30:29;19.40;99.90
33207;DHT22;19565;46.602;11.534;2023-09-18T05:32:58;19.40;99.90
33207;DHT22;19565;46.602;11.534;2023-09-18T05:35:31;19.40;99.90
33207;DHT22;19565;46.602;11.534;2023-09-18T05:38:01;19.40;99.90
33207;DHT22;19565;46.602;11.534;2023-09-18T05:40:29;19.40;99.90
33207;DHT22;19565;46.602;11.534;2023-09-18T05:42:57;19.50;99.90
33207;DHT22;19565;46.602;11.534;2023-09-18T05:45:26;19.40;99.90
33207;DHT22;19565;46.602;11.534;2023-09-18T05:47:55;19.50;99.90
33207;DHT22;19565;46.602;11.534;2023-09-18T05:50:29;19.40;99.90
33207;DHT22;19565;46.602;11.534;2023-09-18T05:52:58;19.50;99.90
33207;DHT22;19565;46.602;11.534;2023-09-18T05:55:33;19.50;99.90
33207;DHT22;19565;46.602;11.534;2023-09-18T05:58:02;19.40;99.90
33207;DHT22;19565;46.602;11.534;2023-09-18T06:00:31;19.40;99.90
33207;DHT22;19565;46.602;11.534;2023-09-18T06:03:00;19.40;99.90
33207;DHT22;19565;46.602;11.534;2023-09-18T06:05:28;19.40;99.90
33207;DHT22;19565;46.602;11.534;2023-09-18T06:07:58;19.40;99.90
33207;DHT22;19565;46.602;11.534;2023-09-18T06:10:27;19.50;99.90
33207;DHT22;19565;46.602;11.534;2023-09-18T06:12:56;19.50;99.90
33207;DHT22;19565;46.602;11.534;2023-09-18T06:15:25;19.50;99.90
33207;DHT22;19565;46.602;11.534;2023-09-18T06:17:53;19.50;99.90
33207;DHT22;19565;46.602;11.534;2023-09-18T06:20:21;19.50;99.90
33207;DHT22;19565;46.602;11.534;2023-09-18T06:22:49;19.60;99.90
33207;DHT22;19565;46.602;11.534;2023-09-18T06:25:18;19.60;99.90
33207;DHT22;19565;46.602;11.534;2023-09-18T06:27:47;19.60;99.90
33207;DHT22;19565;46.602;11.534;2023-09-18T06:30:16;19.60;99.90
33207;DHT22;19565;46.602;11.534;2023-09-18T06:32:44;19.60;99.90
33207;DHT22;19565;46.602;11.534;2023-09-18T06:35:13;19.60;99.90
33207;DHT22;19565;46.602;11.534;2023-09-18T06:37:41;19.70;99.90
33207;DHT22;19565;46.602;11.534;2023-09-18T06:40:09;19.70;99.90
33207;DHT22;19565;46.602;11.534;2023-09-18T06:42:37;19.70;99.90
33207;DHT22;19565;46.602;11.534;2023-09-18T06:45:07;19.70;99.90
33207;DHT22;19565;46.602;11.534;2023-09-18T06:47:36;19.70;99.90
33207;DHT22;19565;46.602;11.534;2023-09-18T06:50:07;19.80;99.90
33207;DHT22;19565;46.602;11.534;2023-09-18T06:52:36;19.80;99.90
33207;DHT22;19565;46.602;11.534;2023-09-18T06:55:04;19.70;99.90
33207;DHT22;19565;46.602;11.534;2023-09-18T06:57:32;19.80;99.90
33207;DHT22;19565;46.602;11.534;2023-09-18T07:00:01;19.80;99.90
33207;DHT22;19565;46.602;11.534;2023-09-18T07:02:29;19.80;99.90
33207;DHT22;19565;46.602;11.534;2023-09-18T07:04:59;19.80;99.90
33207;DHT22;19565;46.602;11.534;2023-09-18T07:07:27;19.90;99.90
33207;DHT22;19565;46.602;11.534;2023-09-18T07:09:56;19.90;99.90
33207;DHT22;19565;46.602;11.534;2023-09-18T07:12:26;19.90;99.90
33207;DHT22;19565;46.602;11.534;2023-09-18T07:14:55;19.90;99.90
33207;DHT22;19565;46.602;11.534;2023-09-18T07:17:23;19.90;99.90
33207;DHT22;19565;46.602;11.534;2023-09-18T07:19:51;20.00;99.90
33207;DHT22;19565;46.602;11.534;2023-09-18T07:22:20;20.00;99.90
33207;DHT22;19565;46.602;11.534;2023-09-18T07:24:48;20.10;99.90
33207;DHT22;19565;46.602;11.534;2023-09-18T07:27:16;20.10;99.90
33207;DHT22;19565;46.602;11.534;2023-09-18T07:29:44;20.00;99.90
33207;DHT22;19565;46.602;11.534;2023-09-18T07:32:12;20.00;99.90
33207;DHT22;19565;46.602;11.534;2023-09-18T07:34:55;20.00;99.90
33207;DHT22;19565;46.602;11.534;2023-09-18T07:37:25;20.00;99.90
33207;DHT22;19565;46.602;11.534;2023-09-18T07:39:53;20.00;99.90
33207;DHT22;19565;46.602;11.534;2023-09-18T07:42:24;20.00;99.90
33207;DHT22;19565;46.602;11.534;2023-09-18T07:44:52;20.00;99.90
33207;DHT22;19565;46.602;11.534;2023-09-18T07:47:23;20.00;99.90
33207;DHT22;19565;46.602;11.534;2023-09-18T07:49:51;20.00;99.90
33207;DHT22;19565;46.602;11.534;2023-09-18T07:52:21;20.00;99.90
33207;DHT22;19565;46.602;11.534;2023-09-18T07:54:50;20.00;99.90
33207;DHT22;19565;46.602;11.534;2023-09-18T07:57:18;20.10;99.90
33207;DHT22;19565;46.602;11.534;2023-09-18T07:59:49;20.10;99.90
33207;DHT22;19565;46.602;11.534;2023-09-18T08:02:17;20.10;99.90
33207;DHT22;19565;46.602;11.534;2023-09-18T08:04:46;20.00;99.90
33207;DHT22;19565;46.602;11.534;2023-09-18T08:07:14;20.10;99.90
33207;DHT22;19565;46.602;11.534;2023-09-18T08:09:43;20.10;99.90
33207;DHT22;19565;46.602;11.534;2023-09-18T08:12:12;20.10;99.90
33207;DHT22;19565;46.602;11.534;2023-09-18T08:14:40;20.20;99.90
33207;DHT22;19565;46.602;11.534;2023-09-18T08:17:08;20.30;99.90
33207;DHT22;19565;46.602;11.534;2023-09-18T08:19:36;20.30;99.90
33207;DHT22;19565;46.602;11.534;2023-09-18T08:22:06;20.30;99.90
33207;DHT22;19565;46.602;11.534;2023-09-18T08:24:34;20.30;99.90
33207;DHT22;19565;46.602;11.534;2023-09-18T08:27:02;20.40;99.90
33207;DHT22;19565;46.602;11.534;2023-09-18T08:29:32;20.40;99.90
33207;DHT22;19565;46.602;11.534;2023-09-18T08:32:00;20.40;99.90
33207;DHT22;19565;46.602;11.534;2023-09-18T08:34:29;20.50;99.90
33207;DHT22;19565;46.602;11.534;2023-09-18T08:36:57;20.60;99.90
33207;DHT22;19565;46.602;11.534;2023-09-18T08:39:25;20.70;99.90
33207;DHT22;19565;46.602;11.534;2023-09-18T08:41:59;20.70;99.90
33207;DHT22;19565;46.602;11.534;2023-09-18T08:44:27;20.80;99.90
33207;DHT22;19565;46.602;11.534;2023-09-18T08:46:57;20.80;99.90
33207;DHT22;19565;46.602;11.534;2023-09-18T08:49:26;20.80;99.90
33207;DHT22;19565;46.602;11.534;2023-09-18T08:51:55;20.70;99.90
33207;DHT22;19565;46.602;11.534;2023-09-18T08:54:25;20.70;99.90
33207;DHT22;19565;46.602;11.534;2023-09-18T08:56:55;20.70;99.90
33207;DHT22;19565;46.602;11.534;2023-09-18T08:59:25;20.80;99.90
33207;DHT22;19565;46.602;11.534;2023-09-18T09:01:57;20.80;99.90
33207;DHT22;19565;46.602;11.534;2023-09-18T09:04:25;20.80;99.90
33207;DHT22;19565;46.602;11.534;2023-09-18T09:06:53;20.90;99.90
33207;DHT22;19565;46.602;11.534;2023-09-18T09:09:26;21.00;99.90
33207;DHT22;19565;46.602;11.534;2023-09-18T09:11:54;21.00;99.90
33207;DHT22;19565;46.602;11.534;2023-09-18T09:14:23;21.10;99.90
33207;DHT22;19565;46.602;11.534;2023-09-18T09:16:57;21.10;99.90
33207;DHT22;19565;46.602;11.534;2023-09-18T09:19:30;21.20;99.90
33207;DHT22;19565;46.602;11.534;2023-09-18T09:21:59;21.20;99.90
33207;DHT22;19565;46.602;11.534;2023-09-18T09:24:39;21.30;99.90
33207;DHT22;19565;46.602;11.534;2023-09-18T09:27:08;21.40;99.90
33207;DHT22;19565;46.602;11.534;2023-09-18T09:29:36;21.40;99.90
33207;DHT22;19565;46.602;11.534;2023-09-18T09:32:16;21.50;99.90
33207;DHT22;19565;46.602;11.534;2023-09-18T09:34:45;21.60;99.90
33207;DHT22;19565;46.602;11.534;2023-09-18T09:37:14;21.60;99.90
33207;DHT22;19565;46.602;11.534;2023-09-18T09:39:49;21.70;99.90
33207;DHT22;19565;46.602;11.534;2023-09-18T09:42:19;21.70;99.90
33207;DHT22;19565;46.602;11.534;2023-09-18T09:45:03;21.80;99.90
33207;DHT22;19565;46.602;11.534;2023-09-18T09:47:34;21.80;99.90
33207;DHT22;19565;46.602;11.534;2023-09-18T09:50:07;21.80;99.90
33207;DHT22;19565;46.602;11.534;2023-09-18T09:52:42;21.90;99.90
33207;DHT22;19565;46.602;11.534;2023-09-18T09:55:18;21.90;99.90
33207;DHT22;19565;46.602;11.534;2023-09-18T09:57:47;21.90;99.90
33207;DHT22;19565;46.602;11.534;2023-09-18T10:00:16;21.90;99.90
33207;DHT22;19565;46.602;11.534;2023-09-18T10:02:57;21.90;99.90
33207;DHT22;19565;46.602;11.534;2023-09-18T10:05:31;21.90;99.90
33207;DHT22;19565;46.602;11.534;2023-09-18T10:08:02;21.90;99.90
33207;DHT22;19565;46.602;11.534;2023-09-18T10:10:34;21.90;99.90
33207;DHT22;19565;46.602;11.534;2023-09-18T10:13:09;21.90;99.90
33207;DHT22;19565;46.602;11.534;2023-09-18T10:15:38;22.00;99.90
33207;DHT22;19565;46.602;11.534;2023-09-18T10:18:18;22.00;99.90
33207;DHT22;19565;46.602;11.534;2023-09-18T10:20:51;22.00;99.90
33207;DHT22;19565;46.602;11.534;2023-09-18T10:23:34;22.00;99.90
33207;DHT22;19565;46.602;11.534;2023-09-18T10:26:07;22.10;99.90
33207;DHT22;19565;46.602;11.534;2023-09-18T10:28:39;22.20;99.90
33207;DHT22;19565;46.602;11.534;2023-09-18T10:31:08;22.20;99.90
33207;DHT22;19565;46.602;11.534;2023-09-18T10:33:40;22.20;99.90
33207;DHT22;19565;46.602;11.534;2023-09-18T10:36:10;22.30;99.90
33207;DHT22;19565;46.602;11.534;2023-09-18T10:38:39;22.40;99.90
33207;DHT22;19565;46.602;11.534;2023-09-18T10:41:08;22.40;99.90
33207;DHT22;19565;46.602;11.534;2023-09-18T10:43:38;22.50;99.90
33207;DHT22;19565;46.602;11.534;2023-09-18T10:46:06;22.60;99.90
33207;DHT22;19565;46.602;11.534;2023-09-18T10:48:35;22.60;99.90
33207;DHT22;19565;46.602;11.534;2023-09-18T10:51:04;22.70;99.90
33207;DHT22;19565;46.602;11.534;2023-09-18T10:53:32;22.70;99.90
33207;DHT22;19565;46.602;11.534;2023-09-18T10:56:01;22.70;99.90
33207;DHT22;19565;46.602;11.534;2023-09-18T10:58:31;22.70;99.90
33207;DHT22;19565;46.602;11.534;2023-09-18T11:01:02;22.60;99.90
33207;DHT22;19565;46.602;11.534;2023-09-18T11:03:33;22.50;99.90
33207;DHT22;19565;46.602;11.534;2023-09-18T11:06:04;22.50;99.90
33207;DHT22;19565;46.602;11.534;2023-09-18T11:08:34;22.40;99.90
33207;DHT22;19565;46.602;11.534;2023-09-18T11:11:06;22.20;99.90
33207;DHT22;19565;46.602;11.534;2023-09-18T11:13:43;22.20;99.90
33207;DHT22;19565;46.602;11.534;2023-09-18T11:16:33;22.20;99.90
33207;DHT22;19565;46.602;11.534;2023-09-18T11:19:09;22.20;99.90
33207;DHT22;19565;46.602;11.534;2023-09-18T11:21:39;22.10;99.90
33207;DHT22;19565;46.602;11.534;2023-09-18T11:24:08;22.20;99.90
33207;DHT22;19565;46.602;11.534;2023-09-18T11:26:40;22.20;99.90
33207;DHT22;19565;46.602;11.534;2023-09-18T11:29:10;22.30;99.90
33207;DHT22;19565;46.602;11.534;2023-09-18T11:31:41;22.40;99.90
33207;DHT22;19565;46.602;11.534;2023-09-18T11:34:12;22.50;99.90
33207;DHT22;19565;46.602;11.534;2023-09-18T11:36:42;22.50;99.90
33207;DHT22;19565;46.602;11.534;2023-09-18T11:39:11;22.60;99.90
33207;DHT22;19565;46.602;11.534;2023-09-18T11:41:40;22.60;99.90
33207;DHT22;19565;46.602;11.534;2023-09-18T11:44:33;22.70;99.90
33207;DHT22;19565;46.602;11.534;2023-09-18T11:47:07;22.70;99.90
33207;DHT22;19565;46.602;11.534;2023-09-18T11:49:41;22.70;99.90
33207;DHT22;19565;46.602;11.534;2023-09-18T11:52:16;22.70;99.90
33207;DHT22;19565;46.602;11.534;2023-09-18T11:54:44;22.70;99.90
33207;DHT22;19565;46.602;11.534;2023-09-18T11:57:13;22.70;99.90
33207;DHT22;19565;46.602;11.534;2023-09-18T11:59:42;22.80;99.90
33207;DHT22;19565;46.602;11.534;2023-09-18T12:02:13;22.80;99.90
33207;DHT22;19565;46.602;11.534;2023-09-18T12:04:47;22.90;99.90
33207;DHT22;19565;46.602;11.534;2023-09-18T12:07:17;23.00;99.90
33207;DHT22;19565;46.602;11.534;2023-09-18T12:09:46;23.10;99.90
33207;DHT22;19565;46.602;11.534;2023-09-18T12:12:15;23.10;99.90
33207;DHT22;19565;46.602;11.534;2023-09-18T12:14:44;23.20;99.90
33207;DHT22;19565;46.602;11.534;2023-09-18T12:17:14;23.20;99.90
33207;DHT22;19565;46.602;11.534;2023-09-18T12:19:51;23.10;99.90
33207;DHT22;19565;46.602;11.534;2023-09-18T12:22:25;23.10;99.90
33207;DHT22;19565;46.602;11.534;2023-09-18T12:25:08;23.00;99.90
33207;DHT22;19565;46.602;11.534;2023-09-18T12:27:41;22.90;99.90
33207;DHT22;19565;46.602;11.534;2023-09-18T12:30:11;22.80;99.90
33207;DHT22;19565;46.602;11.534;2023-09-18T12:32:42;22.70;99.90
33207;DHT22;19565;46.602;11.534;2023-09-18T12:35:13;22.70;99.90
33207;DHT22;19565;46.602;11.534;2023-09-18T12:37:43;22.70;99.90
33207;DHT22;19565;46.602;11.534;2023-09-18T12:40:22;22.70;99.90
33207;DHT22;19565;46.602;11.534;2023-09-18T12:42:50;22.80;99.90
33207;DHT22;19565;46.602;11.534;2023-09-18T12:45:20;22.80;99.90
33207;DHT22;19565;46.602;11.534;2023-09-18T12:47:49;22.90;99.90
33207;DHT22;19565;46.602;11.534;2023-09-18T12:50:17;22.90;99.90
33207;DHT22;19565;46.602;11.534;2023-09-18T12:52:47;22.90;99.90
33207;DHT22;19565;46.602;11.534;2023-09-18T12:55:25;23.00;99.90
33207;DHT22;19565;46.602;11.534;2023-09-18T12:57:54;23.00;99.90
33207;DHT22;19565;46.602;11.534;2023-09-18T13:00:23;23.00;99.90
33207;DHT22;19565;46.602;11.534;2023-09-18T13:02:53;23.10;99.90
33207;DHT22;19565;46.602;11.534;2023-09-18T13:05:23;23.10;99.90
33207;DHT22;19565;46.602;11.534;2023-09-18T13:07:55;23.10;99.90
33207;DHT22;19565;46.602;11.534;2023-09-18T13:10:23;23.00;99.90
33207;DHT22;19565;46.602;11.534;2023-09-18T13:12:55;23.00;99.90
33207;DHT22;19565;46.602;11.534;2023-09-18T13:15:25;23.00;99.90
33207;DHT22;19565;46.602;11.534;2023-09-18T13:17:54;23.10;99.90
33207;DHT22;19565;46.602;11.534;2023-09-18T13:20:24;23.10;99.90
33207;DHT22;19565;46.602;11.534;2023-09-18T13:22:56;23.10;99.90
33207;DHT22;19565;46.602;11.534;2023-09-18T13:25:25;23.00;99.90
33207;DHT22;19565;46.602;11.534;2023-09-18T13:27:54;23.00;99.90
33207;DHT22;19565;46.602;11.534;2023-09-18T13:30:22;23.00;99.90
33207;DHT22;19565;46.602;11.534;2023-09-18T13:32:51;23.00;99.90
33207;DHT22;19565;46.602;11.534;2023-09-18T13:35:19;23.00;99.90
33207;DHT22;19565;46.602;11.534;2023-09-18T13:37:47;23.00;99.90
33207;DHT22;19565;46.602;11.534;2023-09-18T13:40:16;23.00;99.90
33207;DHT22;19565;46.602;11.534;2023-09-18T13:42:44;23.00;99.90
33207;DHT22;19565;46.602;11.534;2023-09-18T13:45:12;23.00;99.90
33207;DHT22;19565;46.602;11.534;2023-09-18T13:47:43;22.90;99.90
33207;DHT22;19565;46.602;11.534;2023-09-18T13:50:11;22.90;99.90
33207;DHT22;19565;46.602;11.534;2023-09-18T13:52:39;22.80;99.90
33207;DHT22;19565;46.602;11.534;2023-09-18T13:55:08;22.70;99.90
33207;DHT22;19565;46.602;11.534;2023-09-18T13:57:38;22.70;99.90
33207;DHT22;19565;46.602;11.534;2023-09-18T14:00:07;22.70;99.90
33207;DHT22;19565;46.602;11.534;2023-09-18T14:02:37;22.60;99.90
33207;DHT22;19565;46.602;11.534;2023-09-18T14:05:06;22.70;99.90
33207;DHT22;19565;46.602;11.534;2023-09-18T14:07:34;22.60;99.90
33207;DHT22;19565;46.602;11.534;2023-09-18T14:10:06;22.60;99.90
33207;DHT22;19565;46.602;11.534;2023-09-18T14:12:34;22.60;99.90
33207;DHT22;19565;46.602;11.534;2023-09-18T14:15:05;22.60;99.90
33207;DHT22;19565;46.602;11.534;2023-09-18T14:17:34;22.60;99.90
33207;DHT22;19565;46.602;11.534;2023-09-18T14:20:03;22.60;99.90
33207;DHT22;19565;46.602;11.534;2023-09-18T14:22:33;22.60;99.90
33207;DHT22;19565;46.602;11.534;2023-09-18T14:25:03;22.60;99.90
33207;DHT22;19565;46.602;11.534;2023-09-18T14:27:33;22.50;99.90
33207;DHT22;19565;46.602;11.534;2023-09-18T14:30:04;22.50;99.90
33207;DHT22;19565;46.602;11.534;2023-09-18T14:32:34;22.50;99.90
33207;DHT22;19565;46.602;11.534;2023-09-18T14:35:04;22.50;99.90
33207;DHT22;19565;46.602;11.534;2023-09-18T14:37:35;22.50;99.90
33207;DHT22;19565;46.602;11.534;2023-09-18T14:40:04;22.40;99.90
33207;DHT22;19565;46.602;11.534;2023-09-18T14:42:34;22.40;99.90
33207;DHT22;19565;46.602;11.534;2023-09-18T14:45:04;22.40;99.90
33207;DHT22;19565;46.602;11.534;2023-09-18T14:47:33;22.40;99.90
33207;DHT22;19565;46.602;11.534;2023-09-18T14:50:01;22.40;99.90
33207;DHT22;19565;46.602;11.534;2023-09-18T14:52:29;22.40;99.90
33207;DHT22;19565;46.602;11.534;2023-09-18T14:54:57;22.40;99.90
33207;DHT22;19565;46.602;11.534;2023-09-18T14:57:26;22.40;99.90
33207;DHT22;19565;46.602;11.534;2023-09-18T14:59:54;22.40;99.90
33207;DHT22;19565;46.602;11.534;2023-09-18T15:02:23;22.30;99.90
33207;DHT22;19565;46.602;11.534;2023-09-18T15:04:56;22.30;99.90
33207;DHT22;19565;46.602;11.534;2023-09-18T15:07:25;22.30;99.90
33207;DHT22;19565;46.602;11.534;2023-09-18T15:09:53;22.30;99.90
33207;DHT22;19565;46.602;11.534;2023-09-18T15:12:21;22.40;99.90
33207;DHT22;19565;46.602;11.534;2023-09-18T15:14:49;22.40;99.90
33207;DHT22;19565;46.602;11.534;2023-09-18T15:17:17;22.50;99.90
33207;DHT22;19565;46.602;11.534;2023-09-18T15:19:46;22.50;99.90
33207;DHT22;19565;46.602;11.534;2023-09-18T15:22:20;22.60;99.90
33207;DHT22;19565;46.602;11.534;2023-09-18T15:24:49;22.60;99.90
33207;DHT22;19565;46.602;11.534;2023-09-18T15:27:17;22.70;99.90
33207;DHT22;19565;46.602;11.534;2023-09-18T15:29:45;22.70;99.90
33207;DHT22;19565;46.602;11.534;2023-09-18T15:32:13;22.70;99.90